Time;durP1;ratioP1;P1;durP2;ratioP2;P2;SDS_P1;SDS_P2;PMS_P1;PMS_P2;Temp;Humidity;BMP_temperature;BMP_pressure;BME280_temperature;BME280_humidity;BME280_pressure;Samples;Min_cycle;Max_cycle;Signal;HPM_P1;HPM_P2
2023/05/11 00:01:03;;;;;;;7.13;6.10;;;;;;;11.40;85.43;99956.44;5033674;28;20208;-62
2023/05/11 00:03:30;;;;;;;6.23;5.83;;;;;;;11.46;85.39;99954.84;5030670;28;20308;-63
2023/05/11 00:05:57;;;;;;;6.83;6.13;;;;;;;11.42;85.86;99961.53;5013310;28;20254;-63
2023/05/11 00:08:23;;;;;;;7.07;6.47;;;;;;;11.52;85.44;99957.59;5014015;28;20194;-62
2023/05/11 00:10:50;;;;;;;7.77;7.07;;;;;;;11.53;85.09;99961.88;5013163;28;20199;-63
2023/05/11 00:13:17;;;;;;;7.50;6.20;;;;;;;11.56;85.02;99958.81;5013346;28;20192;-63
2023/05/11 00:15:45;;;;;;;6.80;6.20;;;;;;;11.43;85.05;99972.00;5021464;28;20203;-62
2023/05/11 00:18:12;;;;;;;7.60;6.10;;;;;;;11.22;86.45;99957.91;5032277;28;20202;-63
2023/05/11 00:20:39;;;;;;;8.83;6.63;;;;;;;11.29;86.64;99972.06;5033448;28;20200;-63
2023/05/11 00:23:06;;;;;;;6.13;5.73;;;;;;;11.24;86.88;99972.66;5033287;28;20256;-63
2023/05/11 00:25:32;;;;;;;6.93;6.30;;;;;;;10.93;87.62;99970.25;5022481;28;20226;-62
2023/05/11 00:27:59;;;;;;;6.57;6.17;;;;;;;10.95;88.30;99978.84;5013188;28;20189;-62
2023/05/11 00:30:26;;;;;;;9.40;5.97;;;;;;;10.99;88.55;99974.81;5012922;28;20239;-62
2023/05/11 00:32:54;;;;;;;8.43;6.57;;;;;;;10.96;88.51;99974.38;5013231;28;20219;-62
2023/05/11 00:35:21;;;;;;;7.20;6.67;;;;;;;11.05;88.71;99973.25;5020625;28;20245;-63
2023/05/11 00:37:47;;;;;;;6.53;6.07;;;;;;;11.08;88.09;99978.19;5032430;28;20241;-62
2023/05/11 00:40:14;;;;;;;6.70;6.30;;;;;;;11.10;87.83;99976.16;5032683;28;20261;-62
2023/05/11 00:42:41;;;;;;;6.60;6.10;;;;;;;11.04;88.39;99972.41;5032710;28;20623;-62
2023/05/11 00:45:08;;;;;;;7.57;6.10;;;;;;;10.82;89.32;99977.84;5026259;28;20190;-63
2023/05/11 00:47:35;;;;;;;6.90;6.23;;;;;;;10.78;89.26;99971.25;5013293;28;20194;-63
2023/05/11 00:50:03;;;;;;;6.60;6.20;;;;;;;10.84;90.00;99978.50;5013202;28;20569;-63
2023/05/11 00:52:30;;;;;;;5.87;5.47;;;;;;;10.78;89.15;99976.56;5013004;28;20227;-61
2023/05/11 00:54:56;;;;;;;7.03;6.37;;;;;;;10.87;89.82;99975.50;5016319;28;20196;-62
2023/05/11 00:57:23;;;;;;;6.80;6.33;;;;;;;10.88;89.83;99977.13;5032213;28;20245;-62
2023/05/11 00:59:50;;;;;;;6.63;6.03;;;;;;;10.86;89.28;99973.81;5032402;28;20193;-62
2023/05/11 01:02:17;;;;;;;7.60;5.90;;;;;;;10.86;89.29;99958.72;5031416;28;20254;-63
2023/05/11 01:04:44;;;;;;;6.67;6.00;;;;;;;10.92;89.02;99971.22;5021828;28;20670;-62
2023/05/11 01:07:19;;;;;;;6.57;6.00;;;;;;;10.78;89.80;99977.41;5032559;28;20237;-62
2023/05/11 01:09:55;;;;;;;9.57;6.77;;;;;;;10.87;89.44;99967.50;5032196;28;20644;-62
2023/05/11 01:12:29;;;;;;;6.43;5.87;;;;;;;10.92;89.30;99973.91;5032648;28;20209;-62
2023/05/11 01:15:02;;;;;;;6.90;6.30;;;;;;;10.80;90.00;99977.22;5028895;28;20248;-62
2023/05/11 01:17:38;;;;;;;8.40;5.80;;;;;;;10.85;90.06;99975.66;5012634;28;20273;-62
2023/05/11 01:20:09;;;;;;;6.73;6.20;;;;;;;10.87;89.86;99980.81;5012453;28;20662;-62
2023/05/11 01:22:52;;;;;;;6.67;6.03;;;;;;;10.67;90.01;99985.84;5012712;28;20190;-62
2023/05/11 01:25:38;;;;;;;7.77;6.60;;;;;;;10.62;91.06;99977.59;5017067;28;20232;-62
2023/05/11 01:28:26;;;;;;;7.10;6.50;;;;;;;10.60;90.97;99984.13;5032193;28;20205;-63
2023/05/11 01:30:57;;;;;;;9.47;6.10;;;;;;;10.32;92.79;99983.94;5031567;28;20644;-63
2023/05/11 01:33:30;;;;;;;6.37;5.90;;;;;;;10.54;92.28;99984.88;5026104;28;20236;-62
2023/05/11 01:36:03;;;;;;;6.60;6.00;;;;;;;10.54;91.55;99990.97;5012719;28;20181;-62
2023/05/11 01:38:33;;;;;;;7.53;6.90;;;;;;;10.62;91.68;99987.44;5012191;28;20190;-62
2023/05/11 01:41:03;;;;;;;7.20;6.47;;;;;;;10.67;91.91;99982.38;5012585;28;20186;-62
2023/05/11 01:43:32;;;;;;;8.07;7.40;;;;;;;10.59;91.48;99974.50;5016745;28;20696;-62
2023/05/11 01:46:01;;;;;;;8.03;7.20;;;;;;;10.65;92.36;99987.03;5031679;28;20197;-62
2023/05/11 01:48:31;;;;;;;7.70;7.10;;;;;;;10.72;91.85;99977.34;5031775;28;20270;-62
2023/05/11 01:51:01;;;;;;;6.83;6.10;;;;;;;10.77;91.44;99977.59;5031760;28;20680;-62
2023/05/11 01:53:32;;;;;;;6.30;5.73;;;;;;;10.71;91.24;99975.69;5025989;28;20234;-62
2023/05/11 01:56:00;;;;;;;7.97;6.23;;;;;;;10.38;93.33;99979.72;5011937;28;20638;-63
2023/05/11 01:58:28;;;;;;;7.13;6.53;;;;;;;10.54;92.67;99979.56;5025623;28;20193;-61
2023/05/11 02:00:56;;;;;;;6.93;6.40;;;;;;;10.49;92.48;99979.25;5026344;28;20190;-62
2023/05/11 02:03:26;;;;;;;9.77;6.60;;;;;;;10.36;93.34;99974.59;5013504;28;20206;-62
2023/05/11 02:05:55;;;;;;;6.63;5.90;;;;;;;10.19;93.96;99970.47;5032128;28;20201;-62
2023/05/11 02:08:22;;;;;;;7.67;6.90;;;;;;;10.26;94.74;99973.22;5031713;28;20194;-62
2023/05/11 02:10:50;;;;;;;8.27;6.30;;;;;;;10.40;94.08;99975.88;5030575;28;20193;-62
2023/05/11 02:13:19;;;;;;;6.80;6.17;;;;;;;10.51;93.34;99970.09;5032839;28;20227;-61
2023/05/11 02:15:48;;;;;;;7.50;6.80;;;;;;;10.48;93.20;99973.13;5035055;28;20581;-61
2023/05/11 02:18:16;;;;;;;7.10;6.50;;;;;;;10.54;93.00;99980.34;5035896;28;20197;-62
2023/05/11 02:20:46;;;;;;;8.50;6.63;;;;;;;10.63;93.10;99979.25;5031946;28;20194;-62
2023/05/11 02:23:13;;;;;;;8.70;6.37;;;;;;;10.67;93.00;99974.41;5015674;28;20193;-62
2023/05/11 02:25:41;;;;;;;9.73;6.50;;;;;;;10.57;92.82;99979.16;5015842;28;20191;-62
2023/05/11 02:28:08;;;;;;;7.27;6.57;;;;;;;10.53;93.37;99983.19;5014942;28;20194;-61
2023/05/11 02:30:40;;;;;;;7.30;6.47;;;;;;;10.64;92.99;99966.81;5030138;28;20229;-61
2023/05/11 02:33:09;;;;;;;8.10;6.90;;;;;;;10.62;93.33;99976.81;5035460;28;20647;-62
2023/05/11 02:35:42;;;;;;;7.13;6.53;;;;;;;10.73;92.78;99978.97;5034782;28;20198;-62
2023/05/11 02:38:12;;;;;;;8.27;6.63;;;;;;;10.84;92.54;99975.84;5035080;28;20553;-62
2023/05/11 02:40:42;;;;;;;9.03;7.03;;;;;;;10.65;92.20;99976.41;5020298;28;20238;-62
2023/05/11 02:43:12;;;;;;;7.43;6.50;;;;;;;10.48;92.79;99959.84;5015232;28;20186;-61
2023/05/11 02:45:43;;;;;;;8.57;5.87;;;;;;;10.44;93.68;99973.69;5015155;28;20198;-62
2023/05/11 02:48:15;;;;;;;11.50;6.20;;;;;;;10.41;93.42;99980.19;5015562;28;20186;-62
2023/05/11 02:50:43;;;;;;;6.87;6.03;;;;;;;10.52;93.12;99981.56;5029209;28;20204;-63
2023/05/11 02:53:15;;;;;;;6.43;5.93;;;;;;;10.43;93.05;99982.66;5034699;28;20715;-63
2023/05/11 02:55:42;;;;;;;6.97;6.40;;;;;;;10.60;93.67;99992.09;5034322;28;20592;-62
2023/05/11 02:58:09;;;;;;;9.10;7.03;;;;;;;10.60;93.19;99990.25;5034571;28;20685;-62
2023/05/11 03:00:36;;;;;;;7.10;6.47;;;;;;;10.69;92.84;99998.94;5020272;28;20256;-62
2023/05/11 03:03:03;;;;;;;7.93;7.23;;;;;;;10.77;93.10;99990.88;5014370;28;20324;-62
2023/05/11 03:05:30;;;;;;;8.20;7.70;;;;;;;10.80;92.86;99990.50;5033354;28;20193;-62
2023/05/11 03:07:58;;;;;;;7.40;6.77;;;;;;;10.87;92.79;100002.88;5034887;28;20197;-62
2023/05/11 03:10:27;;;;;;;8.63;7.83;;;;;;;10.95;92.26;99994.78;5032786;28;20193;-62
2023/05/11 03:12:54;;;;;;;10.93;9.83;;;;;;;10.50;92.21;99997.66;5034601;28;20218;-62
2023/05/11 03:15:22;;;;;;;8.27;7.03;;;;;;;10.60;92.88;99994.75;5034297;28;20251;-62
2023/05/11 03:17:50;;;;;;;7.23;6.60;;;;;;;10.72;92.79;99994.09;5033998;28;20194;-63
2023/05/11 03:20:19;;;;;;;13.37;9.60;;;;;;;10.61;92.61;100004.34;5024254;28;20862;-63
2023/05/11 03:22:46;;;;;;;10.23;9.23;;;;;;;10.60;92.32;99990.25;5014428;28;20258;-63
2023/05/11 03:25:15;;;;;;;14.07;7.40;;;;;;;10.45;92.58;99996.56;5012731;28;20581;-63
2023/05/11 03:27:45;;;;;;;12.10;10.10;;;;;;;10.42;93.26;99999.59;5014409;28;20189;-63
2023/05/11 03:30:14;;;;;;;11.37;8.33;;;;;;;10.41;93.80;99997.94;5020675;28;20221;-63
2023/05/11 03:32:41;;;;;;;10.17;8.80;;;;;;;10.35;94.19;100001.34;5033977;28;20283;-63
2023/05/11 03:35:09;;;;;;;9.50;8.60;;;;;;;10.36;94.04;99992.34;5033940;28;20751;-63
2023/05/11 03:37:37;;;;;;;11.33;10.20;;;;;;;10.31;93.48;100005.34;5034080;28;20201;-63
2023/05/11 03:40:06;;;;;;;11.80;10.70;;;;;;;10.33;93.67;100006.81;5027777;28;20245;-64
2023/05/11 03:42:35;;;;;;;9.53;8.70;;;;;;;10.40;93.07;100009.56;5014691;28;20197;-63
2023/05/11 03:45:05;;;;;;;12.13;8.30;;;;;;;10.26;93.87;100002.44;5013867;28;20197;-64
2023/05/11 03:47:33;;;;;;;8.50;7.63;;;;;;;10.13;94.78;100004.88;5013414;28;20257;-62
2023/05/11 03:50:01;;;;;;;8.70;7.83;;;;;;;10.14;95.46;99998.56;5013702;28;20358;-62
2023/05/11 03:52:29;;;;;;;8.13;6.97;;;;;;;10.19;95.69;99997.03;5013086;28;20222;-63
2023/05/11 03:54:56;;;;;;;9.30;7.37;;;;;;;10.25;94.71;100006.09;5012250;28;20237;-62
2023/05/11 03:57:25;;;;;;;8.73;7.17;;;;;;;10.32;94.30;100004.34;5012700;28;20193;-62
2023/05/11 03:59:52;;;;;;;7.07;6.57;;;;;;;10.33;94.31;99988.25;5014119;28;20229;-62
2023/05/11 04:02:23;;;;;;;7.00;6.40;;;;;;;10.46;93.37;100014.16;5012581;28;20268;-62
2023/05/11 04:04:49;;;;;;;8.00;7.20;;;;;;;10.54;93.34;100011.44;5026709;28;20320;-64
2023/05/11 04:07:16;;;;;;;7.77;7.10;;;;;;;10.52;92.86;100008.94;5032898;28;20197;-63
2023/05/11 04:09:43;;;;;;;8.13;7.47;;;;;;;10.61;92.94;100014.97;5033475;28;20624;-63
2023/05/11 04:12:10;;;;;;;8.53;7.73;;;;;;;10.60;92.77;100021.31;5032957;28;20326;-63
2023/05/11 04:14:36;;;;;;;7.87;7.23;;;;;;;10.58;92.40;100002.09;5033123;28;20197;-63
2023/05/11 04:17:03;;;;;;;8.03;7.13;;;;;;;10.71;92.44;100018.19;5033178;28;20197;-63
2023/05/11 04:19:31;;;;;;;8.47;7.63;;;;;;;10.82;92.63;100009.75;5033330;28;20263;-62
2023/05/11 04:21:58;;;;;;;9.40;7.67;;;;;;;10.76;92.22;100015.81;5033024;28;20193;-63
2023/05/11 04:24:24;;;;;;;10.50;7.43;;;;;;;11.01;91.98;100014.50;5033326;28;20255;-63
2023/05/11 04:26:55;;;;;;;9.93;7.47;;;;;;;11.04;91.00;100006.16;5032921;28;20216;-64
2023/05/11 04:29:22;;;;;;;12.47;7.30;;;;;;;11.32;90.56;100023.06;5033471;28;20240;-62
2023/05/11 04:31:49;;;;;;;7.17;6.57;;;;;;;12.00;88.73;100026.00;5032868;28;20197;-63
2023/05/11 04:34:16;;;;;;;6.87;6.23;;;;;;;12.41;84.07;100034.13;5033198;28;20325;-64
2023/05/11 04:36:47;;;;;;;10.37;6.23;;;;;;;12.60;84.02;100036.91;5032335;28;20194;-62
2023/05/11 04:39:14;;;;;;;6.07;5.57;;;;;;;12.40;82.67;100029.78;5032339;28;20632;-63
2023/05/11 04:41:41;;;;;;;6.40;5.83;;;;;;;12.35;82.83;100034.88;5032602;28;20198;-63
2023/05/11 04:44:08;;;;;;;7.60;6.30;;;;;;;12.07;83.83;100029.53;5032818;28;20203;-63
2023/05/11 04:46:35;;;;;;;7.60;6.90;;;;;;;11.95;85.05;100030.25;5032216;28;20252;-62
2023/05/11 04:49:03;;;;;;;7.83;7.13;;;;;;;11.99;85.35;100021.69;5032264;28;20194;-63
2023/05/11 04:51:29;;;;;;;8.13;5.77;;;;;;;11.85;86.12;100033.25;5032314;28;20226;-63
2023/05/11 04:53:57;;;;;;;16.07;6.23;;;;;;;11.91;85.61;100027.16;5032166;28;20844;-63
2023/05/11 04:56:25;;;;;;;7.37;6.50;;;;;;;11.96;86.57;100027.41;5032323;28;20629;-63
2023/05/11 04:58:51;;;;;;;7.23;6.30;;;;;;;12.17;84.98;100035.34;5032301;28;20210;-64
2023/05/11 05:01:18;;;;;;;10.97;6.43;;;;;;;12.37;84.68;100031.00;5032204;28;20197;-63
2023/05/11 05:03:48;;;;;;;6.73;6.23;;;;;;;12.65;82.95;100029.13;5027264;28;20669;-63
2023/05/11 05:06:15;;;;;;;11.40;6.27;;;;;;;12.84;81.83;100038.25;5012190;28;20253;-63
2023/05/11 05:08:41;;;;;;;6.47;5.90;;;;;;;12.75;81.27;100040.28;5012115;28;20201;-63
2023/05/11 05:11:10;;;;;;;7.43;5.70;;;;;;;12.95;81.45;100051.06;5011778;28;20196;-63
2023/05/11 05:13:36;;;;;;;6.53;5.97;;;;;;;13.09;80.27;100034.94;5012389;28;20251;-64
2023/05/11 05:16:03;;;;;;;6.20;5.70;;;;;;;13.23;79.71;100038.50;5011033;28;20200;-63
2023/05/11 05:18:30;;;;;;;8.63;6.20;;;;;;;13.14;80.03;100040.50;5013547;28;20285;-65
2023/05/11 05:20:57;;;;;;;5.33;4.80;;;;;;;13.20;79.75;100039.72;5006391;28;20216;-65
2023/05/11 05:23:23;;;;;;;14.30;5.20;;;;;;;13.27;80.15;100050.41;5009992;28;20245;-64
2023/05/11 05:25:50;;;;;;;5.43;3.80;;;;;;;13.32;80.05;100042.63;5020587;28;20842;-65
2023/05/11 05:28:18;;;;;;;4.63;4.07;;;;;;;14.09;85.39;100031.25;5026132;28;20286;-64
2023/05/11 05:30:45;;;;;;;4.60;3.93;;;;;;;14.11;76.73;100039.91;5012764;28;20229;-64
2023/05/11 05:33:12;;;;;;;6.00;4.43;;;;;;;13.90;76.64;100053.44;5028529;28;20234;-64
2023/05/11 05:35:39;;;;;;;4.53;4.10;;;;;;;13.90;76.26;100064.13;5027262;28;20189;-64
2023/05/11 05:38:05;;;;;;;6.03;4.03;;;;;;;14.25;75.92;100057.59;5017369;28;20202;-64
2023/05/11 05:40:36;;;;;;;6.77;4.47;;;;;;;13.90;76.08;100063.31;5012940;28;20279;-64
2023/05/11 05:43:02;;;;;;;6.23;4.77;;;;;;;13.62;76.73;100074.13;5030451;28;20284;-63
2023/05/11 05:45:30;;;;;;;5.03;4.60;;;;;;;13.79;77.91;100056.72;5028020;28;20727;-64
2023/05/11 05:47:59;;;;;;;6.23;4.87;;;;;;;14.03;76.81;100069.47;5030149;28;20193;-63
2023/05/11 05:50:26;;;;;;;6.63;5.60;;;;;;;14.27;76.26;100060.91;5029733;28;20263;-64
2023/05/11 05:52:52;;;;;;;4.50;4.20;;;;;;;14.09;75.59;100073.19;5026145;28;20266;-63
2023/05/11 05:55:19;;;;;;;7.20;5.30;;;;;;;14.28;75.78;100086.59;5019115;28;20290;-63
2023/05/11 05:57:46;;;;;;;6.40;4.33;;;;;;;14.24;75.39;100082.69;5028533;28;20322;-76
2023/05/11 06:00:14;;;;;;;11.80;4.43;;;;;;;14.37;74.98;100072.00;5028206;28;20267;-74
2023/05/11 06:02:42;;;;;;;5.37;4.10;;;;;;;14.37;74.37;100081.84;5028049;28;20632;-76
2023/05/11 06:05:09;;;;;;;7.10;4.00;;;;;;;14.50;73.04;100087.22;5027767;28;20751;-72
2023/05/11 06:07:36;;;;;;;6.17;4.00;;;;;;;14.37;73.86;100088.03;5028970;28;20201;-73
2023/05/11 06:10:03;;;;;;;4.43;4.03;;;;;;;14.29;73.16;100074.06;5030396;28;20192;-74
2023/05/11 06:12:30;;;;;;;3.97;3.67;;;;;;;14.09;73.05;100067.84;5030923;28;20193;-72
2023/05/11 06:14:57;;;;;;;5.17;3.90;;;;;;;13.82;73.35;100077.69;5028994;28;20228;-75
2023/05/11 06:17:23;;;;;;;5.70;4.10;;;;;;;13.81;75.51;100070.66;5022482;28;20200;-69
2023/05/11 06:19:52;;;;;;;5.37;4.00;;;;;;;14.03;74.08;100074.81;5011204;28;20253;-74
2023/05/11 06:22:18;;;;;;;7.80;4.10;;;;;;;14.19;74.51;100073.59;5025790;28;20256;-71
2023/05/11 06:24:45;;;;;;;5.87;4.33;;;;;;;14.05;73.11;100071.97;5028283;28;20551;-77
2023/05/11 06:27:12;;;;;;;6.07;4.20;;;;;;;14.02;73.30;100077.69;5031137;28;20666;-73
2023/05/11 06:29:41;;;;;;;15.93;6.00;;;;;;;13.82;74.60;100067.00;5034678;28;20229;-71
2023/05/11 06:32:07;;;;;;;5.17;4.40;;;;;;;13.97;73.90;100077.50;5029896;28;20194;-78
2023/05/11 06:34:34;;;;;;;11.90;3.90;;;;;;;14.01;73.10;100060.84;5029760;28;20221;-71
2023/05/11 06:37:02;;;;;;;9.07;4.20;;;;;;;14.17;71.70;100076.47;5028907;28;20208;-71
2023/05/11 06:39:29;;;;;;;5.70;5.07;;;;;;;13.91;72.93;100071.13;5029580;28;20613;-72
2023/05/11 06:41:56;;;;;;;4.70;4.10;;;;;;;13.94;73.13;100070.72;5029347;28;20201;-75
2023/05/11 06:44:22;;;;;;;5.67;4.03;;;;;;;14.15;71.62;100070.53;5030039;28;20275;-72
2023/05/11 06:46:49;;;;;;;4.53;4.17;;;;;;;14.43;71.01;100076.53;5023184;28;20197;-72
2023/05/11 06:49:16;;;;;;;6.17;5.60;;;;;;;14.76;70.15;100074.63;5030240;28;20255;-78
2023/05/11 06:51:43;;;;;;;9.77;5.70;;;;;;;14.62;70.57;100077.53;5029113;28;20631;-74
2023/05/11 06:54:11;;;;;;;9.03;5.73;;;;;;;14.88;69.99;100083.66;5028467;28;20766;-73
2023/05/11 06:56:38;;;;;;;6.07;5.13;;;;;;;15.19;67.13;100089.13;5017544;28;20197;-75
2023/05/11 06:59:05;;;;;;;6.20;5.60;;;;;;;15.34;66.08;100065.63;5030291;28;20193;-71
2023/05/11 07:01:31;;;;;;;6.73;4.90;;;;;;;15.38;66.53;100095.47;5028650;28;20201;-71
2023/05/11 07:03:58;;;;;;;5.97;5.10;;;;;;;15.54;65.45;100094.97;5018703;28;20285;-71
2023/05/11 07:06:25;;;;;;;5.13;3.97;;;;;;;15.65;64.06;100094.31;5023718;28;20198;-77
2023/05/11 07:08:51;;;;;;;4.57;4.23;;;;;;;15.59;62.18;100096.00;5012988;28;20637;-75
2023/05/11 07:11:20;;;;;;;5.50;4.63;;;;;;;15.72;62.70;100093.25;5032510;28;20205;-73
2023/05/11 07:13:47;;;;;;;4.63;3.93;;;;;;;15.84;62.36;100083.50;5013417;28;20243;-71
2023/05/11 07:16:14;;;;;;;4.27;3.97;;;;;;;16.00;61.62;100092.88;5020586;28;20198;-72
2023/05/11 07:18:40;;;;;;;4.83;4.43;;;;;;;15.73;63.56;100084.16;5020488;28;20197;-69
2023/05/11 07:21:07;;;;;;;7.93;5.10;;;;;;;15.93;63.45;100086.75;5027231;28;20206;-73
2023/05/11 07:23:34;;;;;;;5.43;4.20;;;;;;;16.05;62.77;100087.66;5031361;28;20196;-72
2023/05/11 07:26:03;;;;;;;6.37;3.77;;;;;;;16.00;61.33;100100.91;5022755;28;20205;-70
2023/05/11 07:28:31;;;;;;;5.53;4.47;;;;;;;16.26;61.76;100091.88;5018836;28;20194;-70
2023/05/11 07:30:57;;;;;;;5.33;4.83;;;;;;;15.51;63.85;100088.19;5015070;28;20252;-74
2023/05/11 07:33:24;;;;;;;5.40;4.83;;;;;;;15.74;63.07;100085.00;5033196;28;20283;-71
2023/05/11 07:35:51;;;;;;;4.80;4.50;;;;;;;15.85;62.43;100100.41;5033163;28;20661;-72
2023/05/11 07:38:18;;;;;;;4.40;4.03;;;;;;;15.92;61.29;100095.00;5033157;28;20362;-74
2023/05/11 07:40:45;;;;;;;4.40;4.10;;;;;;;16.10;60.19;100097.75;5031840;28;20193;-72
2023/05/11 07:43:11;;;;;;;5.73;4.53;;;;;;;16.44;59.91;100091.94;5033039;28;20639;-76
2023/05/11 07:45:39;;;;;;;6.37;4.17;;;;;;;16.45;59.73;100080.19;5026368;28;20194;-72
2023/05/11 07:48:06;;;;;;;3.60;3.30;;;;;;;16.46;59.93;100093.38;5029813;28;20201;-70
2023/05/11 07:50:33;;;;;;;5.07;4.63;;;;;;;16.85;59.52;100082.28;5029751;28;20195;-72
2023/05/11 07:53:00;;;;;;;12.63;4.90;;;;;;;17.21;57.85;100102.94;5026586;28;20720;-70
2023/05/11 07:55:29;;;;;;;4.60;4.20;;;;;;;17.37;57.05;100076.31;5032012;28;20204;-71
2023/05/11 07:57:56;;;;;;;3.10;2.90;;;;;;;17.55;55.62;100078.19;5032597;28;20264;-71
2023/05/11 08:00:23;;;;;;;6.33;4.00;;;;;;;17.49;56.76;100077.25;5014450;28;20249;-73
2023/05/11 08:02:51;;;;;;;4.17;3.77;;;;;;;17.61;56.87;100079.97;5026506;28;20742;-70
2023/05/11 08:05:19;;;;;;;5.77;3.57;;;;;;;17.65;56.63;100078.47;5015605;28;20686;-70
2023/05/11 08:07:46;;;;;;;7.03;3.23;;;;;;;17.65;56.42;100073.09;5026714;28;20289;-69
2023/05/11 08:10:13;;;;;;;4.53;3.57;;;;;;;17.67;56.71;100077.19;5032241;28;20272;-70
2023/05/11 08:12:39;;;;;;;4.13;2.80;;;;;;;17.64;57.18;100071.47;5032753;28;20260;-70
2023/05/11 08:15:07;;;;;;;3.37;3.07;;;;;;;17.45;56.93;100062.63;5032536;28;20705;-72
2023/05/11 08:17:34;;;;;;;3.17;2.50;;;;;;;17.50;56.80;100067.28;5032482;28;20620;-73
2023/05/11 08:20:02;;;;;;;5.03;2.30;;;;;;;17.55;57.27;100062.06;5014312;28;20204;-70
2023/05/11 08:22:29;;;;;;;4.83;2.80;;;;;;;17.17;58.47;100061.47;5023141;28;20216;-72
2023/05/11 08:24:56;;;;;;;3.33;2.80;;;;;;;17.28;58.50;100061.56;5032745;28;20286;-69
2023/05/11 08:27:23;;;;;;;3.20;2.50;;;;;;;17.15;57.88;100077.00;5026173;28;20209;-70
2023/05/11 08:29:50;;;;;;;4.43;2.70;;;;;;;17.14;58.53;100060.06;5016106;28;20231;-71
2023/05/11 08:32:17;;;;;;;3.40;3.10;;;;;;;17.21;59.44;100065.38;5017283;28;20201;-72
2023/05/11 08:34:44;;;;;;;5.37;3.10;;;;;;;17.17;59.56;100065.00;5015470;28;20283;-72
2023/05/11 08:37:12;;;;;;;4.23;3.10;;;;;;;16.89;59.12;100062.00;5017437;28;20228;-72
2023/05/11 08:39:38;;;;;;;4.57;3.17;;;;;;;16.62;60.79;100054.47;5032462;28;20198;-73
2023/05/11 08:42:06;;;;;;;3.50;3.00;;;;;;;16.82;60.73;100050.50;5031395;28;20187;-72
2023/05/11 08:44:36;;;;;;;2.73;2.53;;;;;;;16.86;60.00;100056.28;5032190;28;20213;-74
2023/05/11 08:47:04;;;;;;;4.93;3.07;;;;;;;16.18;61.45;100057.28;5032267;28;20665;-73
2023/05/11 08:49:31;;;;;;;4.23;3.67;;;;;;;15.86;62.79;100005.59;5032802;28;20193;-73
2023/05/11 08:51:58;;;;;;;9.20;3.70;;;;;;;16.30;63.38;100047.50;5031600;28;20648;-73
2023/05/11 08:54:26;;;;;;;7.50;3.43;;;;;;;16.20;62.65;100065.94;5031367;28;20229;-72
2023/05/11 08:56:53;;;;;;;3.33;3.00;;;;;;;16.21;62.40;100051.50;5032530;28;20637;-71
2023/05/11 08:59:20;;;;;;;5.20;3.77;;;;;;;16.37;61.40;100056.31;5032050;28;20572;-72
2023/05/11 09:01:49;;;;;;;11.23;5.13;;;;;;;16.52;61.02;100048.75;5032140;28;20190;-72
2023/05/11 09:04:17;;;;;;;4.73;4.07;;;;;;;16.81;59.32;100045.38;5022590;28;20689;-69
2023/05/11 09:06:44;;;;;;;8.40;5.60;;;;;;;17.37;72.06;100027.16;5048251;28;20646;-71
2023/05/11 09:09:11;;;;;;;13.80;7.80;;;;;;;18.37;76.21;100013.66;5031892;28;20572;-68
2023/05/11 09:11:39;;;;;;;11.43;6.63;;;;;;;19.20;73.30;100017.69;5032075;28;20200;-68
2023/05/11 09:14:06;;;;;;;4.13;3.83;;;;;;;19.25;58.17;100050.13;5031999;28;20225;-70
2023/05/11 09:16:33;;;;;;;14.60;6.30;;;;;;;19.50;63.49;100034.47;5031547;28;20199;-71
2023/05/11 09:19:01;;;;;;;3.03;2.70;;;;;;;19.86;53.54;100047.53;5031766;28;20568;-70
2023/05/11 09:21:30;;;;;;;4.43;2.37;;;;;;;19.75;50.54;100048.41;5031687;28;20280;-71
2023/05/11 09:23:59;;;;;;;3.40;2.50;;;;;;;19.78;50.99;100047.94;5031053;28;20276;-71
2023/05/11 09:26:28;;;;;;;2.90;2.43;;;;;;;19.76;50.29;100036.56;5031520;28;20200;-71
2023/05/11 09:28:57;;;;;;;3.27;2.67;;;;;;;19.68;50.49;100028.88;5044119;28;20224;-70
2023/05/11 09:31:35;;;;;;;2.77;2.50;;;;;;;19.72;50.22;100021.94;5051586;28;20252;-70
2023/05/11 09:34:16;;;;;;;3.80;2.50;;;;;;;20.00;50.09;100016.50;5032587;28;20243;-71
2023/05/11 09:36:43;;;;;;;5.77;2.70;;;;;;;20.13;48.82;100037.78;5031787;28;20197;-69
2023/05/11 09:39:11;;;;;;;2.20;2.00;;;;;;;20.09;48.58;100020.47;5031468;28;20734;-69
2023/05/11 09:41:37;;;;;;;3.07;2.30;;;;;;;20.00;48.24;100022.72;5031641;28;20198;-72
2023/05/11 09:44:10;;;;;;;3.10;2.47;;;;;;;19.82;48.67;100016.75;5031208;28;20198;-72
2023/05/11 09:46:38;;;;;;;4.07;2.73;;;;;;;19.70;48.68;100013.28;5031061;28;20188;-74
2023/05/11 09:49:05;;;;;;;2.90;2.70;;;;;;;19.63;48.80;100007.22;5014462;28;20636;-72
2023/05/11 09:51:34;;;;;;;3.37;2.50;;;;;;;19.37;47.49;100015.91;5017484;28;20252;-72
2023/05/11 09:54:03;;;;;;;2.90;2.70;;;;;;;19.13;48.97;100017.81;5031214;28;20218;-73
2023/05/11 09:56:55;;;;;;;2.40;2.20;;;;;;;19.29;49.15;100002.81;5020304;28;20570;-72
2023/05/11 09:59:39;;;;;;;3.83;3.43;;;;;;;19.30;49.37;99999.88;5002572;28;20193;-73
2023/05/11 10:02:21;;;;;;;2.80;2.60;;;;;;;19.41;48.03;100008.97;5013178;28;20245;-72
2023/05/11 10:04:47;;;;;;;3.07;2.73;;;;;;;19.28;48.51;100011.94;5031024;28;20201;-72
2023/05/11 10:07:24;;;;;;;3.00;2.80;;;;;;;19.21;48.98;100005.84;5031776;28;20193;-70
2023/05/11 10:09:51;;;;;;;3.30;3.10;;;;;;;18.46;51.13;99993.47;5031218;28;20186;-72
2023/05/11 10:12:22;;;;;;;4.37;2.80;;;;;;;18.02;52.82;99988.59;5031471;28;20514;-71
2023/05/11 10:14:51;;;;;;;2.67;2.40;;;;;;;18.15;52.55;99988.38;5031293;28;20693;-72
2023/05/11 10:17:19;;;;;;;3.40;3.07;;;;;;;18.30;52.62;99994.13;5030869;28;20230;-72
2023/05/11 10:19:47;;;;;;;3.83;3.03;;;;;;;17.77;53.49;99969.97;5031637;28;20236;-70
2023/05/11 10:22:15;;;;;;;3.50;3.20;;;;;;;17.80;52.79;99949.91;5021023;28;20238;-68
2023/05/11 10:24:42;;;;;;;4.23;3.77;;;;;;;18.14;52.78;99992.13;5033247;28;20198;-71
2023/05/11 10:27:10;;;;;;;3.00;2.80;;;;;;;18.15;52.67;99972.25;5024849;28;20263;-70
2023/05/11 10:29:37;;;;;;;3.73;2.80;;;;;;;18.29;52.67;99969.09;5026275;28;20237;-70
2023/05/11 10:32:07;;;;;;;3.50;3.30;;;;;;;18.51;52.73;99970.19;5012396;28;20639;-68
2023/05/11 10:34:34;;;;;;;6.27;3.00;;;;;;;18.65;51.12;99968.03;5039251;28;20278;-70
2023/05/11 10:37:01;;;;;;;3.40;3.20;;;;;;;18.76;51.11;99977.97;5044559;28;20224;-70
2023/05/11 10:39:29;;;;;;;6.43;3.50;;;;;;;18.95;50.35;99974.06;5038361;28;20248;-72
2023/05/11 10:42:12;;;;;;;3.97;3.67;;;;;;;19.16;50.05;99973.44;5036036;28;20191;-71
2023/05/11 10:45:02;;;;;;;3.00;2.80;;;;;;;18.73;50.38;99970.38;5033328;28;20192;-71
2023/05/11 10:48:01;;;;;;;3.23;2.93;;;;;;;18.91;50.82;99968.34;5024709;28;20182;-73
2023/05/11 10:50:52;;;;;;;4.23;2.83;;;;;;;19.10;49.62;99968.97;5020697;28;20193;-70
2023/05/11 10:53:40;;;;;;;3.90;2.97;;;;;;;19.23;50.23;99952.53;5022686;28;20593;-70
2023/05/11 10:56:21;;;;;;;13.40;4.13;;;;;;;19.28;48.54;99966.94;5026402;28;20231;-70
2023/05/11 10:59:06;;;;;;;3.37;3.17;;;;;;;19.33;48.25;99967.06;5033954;28;20665;-72
2023/05/11 11:01:38;;;;;;;6.63;3.00;;;;;;;19.59;46.79;99965.63;5015938;28;20676;-72
2023/05/11 11:04:06;;;;;;;6.57;2.93;;;;;;;19.59;45.92;99968.34;5028335;28;20197;-71
2023/05/11 11:06:35;;;;;;;4.20;3.90;;;;;;;19.24;48.26;99954.22;5033955;28;20194;-74
2023/05/11 11:09:04;;;;;;;3.63;3.00;;;;;;;19.57;47.56;99962.38;5034195;28;20258;-72
2023/05/11 11:11:37;;;;;;;3.40;3.20;;;;;;;19.53;48.20;99955.84;5022711;28;20194;-72
2023/05/11 11:14:05;;;;;;;3.13;2.93;;;;;;;19.80;47.61;99962.22;5022247;28;20189;-72
2023/05/11 11:16:33;;;;;;;6.80;2.53;;;;;;;19.94;46.92;99952.78;5023167;28;20197;-73
2023/05/11 11:19:35;;;;;;;2.87;2.60;;;;;;;20.09;45.76;99961.13;5022032;28;20244;-70
2023/05/11 11:22:04;;;;;;;3.87;2.83;;;;;;;20.18;44.93;99960.47;5017876;28;20247;-70
2023/05/11 11:24:44;;;;;;;3.37;2.70;;;;;;;20.10;45.23;99933.09;5023860;28;20207;-71
2023/05/11 11:27:11;;;;;;;2.80;2.57;;;;;;;20.05;45.71;99938.41;5022248;28;20674;-70
2023/05/11 11:29:39;;;;;;;3.10;2.40;;;;;;;20.03;45.61;99940.50;5021817;28;20295;-69
2023/05/11 11:32:28;;;;;;;2.80;2.60;;;;;;;19.88;45.79;99934.84;5024257;28;20224;-69
2023/05/11 11:34:55;;;;;;;2.60;2.40;;;;;;;19.95;45.58;99927.44;5020789;28;20268;-69